createdAt,value
2023-04-23T00:00:18.987Z,25.00
2023-04-23T00:01:19.042Z,25.00
2023-04-23T00:02:19.168Z,25.00
2023-04-23T00:03:19.257Z,0.00
2023-04-23T00:04:19.239Z,0.00
2023-04-23T00:05:19.198Z,0.00
2023-04-23T00:06:19.169Z,0.00
2023-04-23T00:07:19.178Z,0.00
2023-04-23T00:08:19.180Z,0.00
2023-04-23T00:09:19.192Z,0.00
2023-04-23T00:10:19.879Z,0.00
2023-04-23T00:11:19.182Z,10.05
2023-04-23T00:12:19.185Z,25.00
2023-04-23T00:13:19.208Z,25.00
2023-04-23T00:14:19.192Z,25.00
2023-04-23T00:15:19.389Z,25.70
2023-04-23T00:16:19.208Z,25.00
2023-04-23T00:17:19.210Z,25.74
2023-04-23T00:18:19.203Z,25.92
2023-04-23T00:19:19.266Z,25.00
2023-04-23T00:20:19.212Z,26.04
2023-04-23T00:21:19.891Z,25.04
2023-04-23T00:22:19.231Z,25.00
2023-04-23T00:23:19.225Z,25.29
2023-04-23T00:24:19.235Z,26.51
2023-04-23T00:25:19.240Z,26.60
2023-04-23T00:26:19.255Z,25.31
2023-04-23T00:27:19.261Z,28.50
2023-04-23T00:28:22.009Z,26.06
2023-04-23T00:29:19.294Z,26.09
2023-04-23T00:30:19.263Z,23.38
2023-04-23T00:31:19.259Z,21.21
2023-04-23T00:32:19.270Z,18.55
2023-04-23T00:33:19.242Z,15.90
2023-04-23T00:34:19.233Z,26.42
2023-04-23T00:35:19.229Z,25.01
2023-04-23T00:36:19.224Z,25.00
2023-04-23T00:37:19.212Z,26.34
2023-04-23T00:38:19.192Z,25.37
2023-04-23T00:39:19.192Z,27.43
2023-04-23T00:40:19.180Z,26.17
2023-04-23T00:41:19.185Z,26.43
2023-04-23T00:42:19.165Z,25.86
2023-04-23T00:43:19.188Z,25.38
2023-04-23T00:44:19.180Z,26.09
2023-04-23T00:45:19.191Z,25.50
2023-04-23T00:46:19.153Z,27.10
2023-04-23T00:47:19.170Z,24.93
2023-04-23T00:48:19.132Z,28.53
2023-04-23T00:49:19.129Z,25.56
2023-04-23T00:50:19.127Z,27.81
2023-04-23T00:51:19.107Z,31.62
2023-04-23T00:52:19.900Z,29.54
2023-04-23T00:53:19.122Z,25.00
2023-04-23T00:54:19.083Z,29.35
2023-04-23T00:55:19.077Z,28.39
2023-04-23T00:56:19.900Z,29.54
2023-04-23T00:57:19.058Z,25.10
2023-04-23T00:58:19.058Z,27.34
2023-04-23T00:59:19.046Z,25.98
2023-04-23T01:00:19.058Z,26.81
2023-04-23T01:01:19.085Z,26.51
2023-04-23T01:02:19.141Z,25.87
2023-04-23T01:03:19.133Z,25.68
2023-04-23T01:04:19.127Z,26.63
2023-04-23T01:05:19.016Z,26.54
2023-04-23T01:06:18.993Z,27.79
2023-04-23T01:07:18.994Z,28.70
2023-04-23T01:08:19.906Z,25.32
2023-04-23T01:09:18.974Z,28.92
2023-04-23T01:10:18.974Z,28.96
2023-04-23T01:11:18.953Z,30.09
2023-04-23T01:12:18.969Z,30.81
2023-04-23T01:13:18.936Z,29.74
2023-04-23T01:14:18.938Z,28.71
2023-04-23T01:15:18.948Z,30.06
2023-04-23T01:16:18.930Z,28.52
2023-04-23T01:17:18.930Z,28.42
2023-04-23T01:18:18.899Z,28.94
2023-04-23T01:19:18.892Z,31.39
2023-04-23T01:20:18.889Z,26.98
2023-04-23T01:21:18.875Z,27.35
2023-04-23T01:22:18.873Z,28.13
2023-04-23T01:23:18.864Z,27.63
2023-04-23T01:24:18.870Z,27.17
2023-04-23T01:25:18.864Z,27.40
2023-04-23T01:26:18.883Z,25.53
2023-04-23T01:27:18.882Z,27.05
2023-04-23T01:28:18.900Z,27.84
2023-04-23T01:29:18.929Z,28.72
2023-04-23T01:30:18.930Z,27.55
2023-04-23T01:31:18.975Z,26.64
2023-04-23T01:32:18.995Z,25.31
2023-04-23T01:33:18.986Z,29.04
2023-04-23T01:34:18.976Z,26.82
2023-04-23T01:35:18.988Z,26.20
2023-04-23T01:36:18.995Z,29.55
2023-04-23T01:37:19.016Z,26.96
2023-04-23T01:38:19.024Z,28.37
2023-04-23T01:39:19.043Z,28.40
2023-04-23T01:40:19.048Z,28.85
2023-04-23T01:41:19.065Z,27.68
2023-04-23T01:42:19.080Z,29.92
2023-04-23T01:43:19.093Z,29.40
2023-04-23T01:44:19.113Z,30.02
2023-04-23T01:45:19.118Z,29.59
2023-04-23T01:46:19.148Z,26.47
2023-04-23T01:47:19.186Z,28.42
2023-04-23T01:48:19.155Z,25.20
2023-04-23T01:49:19.190Z,27.32
2023-04-23T01:50:19.175Z,26.19
2023-04-23T01:51:19.192Z,27.76
2023-04-23T01:52:19.197Z,24.30
2023-04-23T01:53:19.211Z,28.81
2023-04-23T01:54:19.230Z,27.94
2023-04-23T01:55:19.259Z,26.66
2023-04-23T01:56:19.263Z,25.56
2023-04-23T01:57:19.278Z,25.25
2023-04-23T01:58:19.277Z,26.84
2023-04-23T01:59:19.286Z,26.01
2023-04-23T02:00:19.288Z,26.48
2023-04-23T02:01:19.351Z,26.36
2023-04-23T02:02:19.339Z,25.46
2023-04-23T02:03:19.459Z,28.55
2023-04-23T02:04:19.434Z,26.55
2023-04-23T02:05:19.400Z,28.21
2023-04-23T02:06:19.375Z,27.30
2023-04-23T02:07:19.452Z,26.44
2023-04-23T02:08:19.405Z,28.76
2023-04-23T02:09:19.416Z,26.44
2023-04-23T02:10:19.435Z,27.87
2023-04-23T02:11:19.463Z,27.95
2023-04-23T02:12:19.452Z,27.96
2023-04-23T02:13:19.488Z,27.40
2023-04-23T02:14:20.431Z,27.66
2023-04-23T02:15:19.500Z,27.08
2023-04-23T02:16:18.532Z,26.70
2023-04-23T02:17:19.544Z,27.04
2023-04-23T02:18:19.531Z,27.35
2023-04-23T02:19:19.538Z,26.69
2023-04-23T02:20:19.573Z,29.20
2023-04-23T02:21:19.591Z,25.56
2023-04-23T02:22:19.577Z,26.63
2023-04-23T02:23:19.579Z,26.23
2023-04-23T02:24:19.590Z,26.26
2023-04-23T02:25:19.604Z,27.29
2023-04-23T02:26:20.436Z,26.85
2023-04-23T02:27:19.624Z,28.80
2023-04-23T02:28:19.652Z,29.54
2023-04-23T02:29:19.653Z,28.63
2023-04-23T02:30:19.673Z,29.07
2023-04-23T02:31:19.703Z,27.35
2023-04-23T02:32:19.720Z,28.02
2023-04-23T02:33:19.733Z,25.00
2023-04-23T02:34:19.727Z,27.01
2023-04-23T02:35:19.745Z,27.07
2023-04-23T02:36:19.762Z,29.38
2023-04-23T02:37:19.786Z,26.77
2023-04-23T02:38:19.780Z,26.19
2023-04-23T02:39:19.786Z,27.45
2023-04-23T02:40:19.805Z,27.56
2023-04-23T02:41:19.828Z,27.00
2023-04-23T02:42:19.841Z,28.45
2023-04-23T02:43:19.854Z,29.35
2023-04-23T02:44:19.863Z,28.47
2023-04-23T02:45:19.872Z,30.30
2023-04-23T02:46:19.890Z,27.61
2023-04-23T02:47:19.919Z,27.21
2023-04-23T02:48:19.916Z,29.85
2023-04-23T02:49:19.923Z,28.68
2023-04-23T02:50:19.940Z,29.98
2023-04-23T02:51:19.954Z,25.99
2023-04-23T02:52:19.975Z,28.34
2023-04-23T02:53:20.006Z,26.16
2023-04-23T02:54:19.991Z,29.83
2023-04-23T02:55:19.999Z,27.87
2023-04-23T02:56:20.033Z,28.28
2023-04-23T02:57:20.024Z,26.24
2023-04-23T02:58:20.044Z,28.78
2023-04-23T02:59:20.059Z,27.95
2023-04-23T03:00:20.070Z,27.93
2023-04-23T03:01:20.100Z,29.30
2023-04-23T03:02:20.232Z,26.86
2023-04-23T03:03:20.267Z,29.54
2023-04-23T03:04:20.143Z,28.26
2023-04-23T03:05:20.140Z,27.38
2023-04-23T03:06:20.157Z,28.64
2023-04-23T03:07:20.161Z,28.50
2023-04-23T03:08:20.177Z,27.88
2023-04-23T03:09:20.211Z,29.08
2023-04-23T03:10:20.206Z,26.78
2023-04-23T03:11:20.221Z,26.98
2023-04-23T03:12:20.233Z,26.11
2023-04-23T03:13:20.273Z,30.09
2023-04-23T03:14:20.258Z,26.59
2023-04-23T03:15:20.275Z,29.43
2023-04-23T03:16:20.305Z,27.52
2023-04-23T03:17:20.305Z,27.11
2023-04-23T03:18:20.464Z,28.79
2023-04-23T03:19:20.334Z,29.72
2023-04-23T03:20:20.947Z,26.43
2023-04-23T03:21:20.373Z,28.44
2023-04-23T03:22:20.398Z,26.80
2023-04-23T03:23:20.413Z,28.74
2023-04-23T03:24:20.422Z,29.23
2023-04-23T03:25:20.465Z,28.27
2023-04-23T03:26:20.459Z,29.99
2023-04-23T03:27:20.470Z,30.57
2023-04-23T03:28:20.494Z,30.84
2023-04-23T03:29:20.497Z,31.26
2023-04-23T03:30:21.452Z,29.35
2023-04-23T03:31:20.583Z,27.04
2023-04-23T03:32:20.592Z,28.48
2023-04-23T03:33:20.569Z,26.93
2023-04-23T03:34:20.581Z,30.03
2023-04-23T03:35:20.599Z,27.08
2023-04-23T03:36:20.614Z,29.70
2023-04-23T03:37:20.623Z,27.03
2023-04-23T03:38:20.656Z,28.30
2023-04-23T03:39:20.661Z,30.10
2023-04-23T03:40:20.685Z,27.00
2023-04-23T03:41:20.721Z,28.84
2023-04-23T03:42:20.713Z,28.61
2023-04-23T03:43:20.768Z,27.89
2023-04-23T03:44:20.753Z,29.24
2023-04-23T03:45:20.761Z,27.66
2023-04-23T03:46:20.851Z,28.77
2023-04-23T03:47:20.829Z,28.24
2023-04-23T03:48:20.860Z,29.95
2023-04-23T03:49:20.849Z,28.10
2023-04-23T03:50:20.864Z,27.18
2023-04-23T03:51:20.872Z,29.94
2023-04-23T03:52:20.890Z,28.25
2023-04-23T03:53:20.904Z,29.66
2023-04-23T03:54:20.945Z,29.58
2023-04-23T03:55:20.950Z,28.65
2023-04-23T03:56:20.971Z,26.13
2023-04-23T03:57:21.027Z,27.06
2023-04-23T03:58:21.022Z,29.32
2023-04-23T03:59:21.031Z,29.50
2023-04-23T04:00:21.029Z,28.14
2023-04-23T04:01:21.059Z,27.80
2023-04-23T04:02:21.222Z,28.42
2023-04-23T04:03:21.359Z,25.00
2023-04-23T04:04:21.530Z,27.83
2023-04-23T04:05:21.139Z,26.81
2023-04-23T04:06:21.155Z,27.58
2023-04-23T04:07:21.156Z,27.69
2023-04-23T04:08:21.179Z,25.79
2023-04-23T04:09:21.199Z,26.06
2023-04-23T04:10:21.220Z,28.44
2023-04-23T04:11:21.242Z,27.43
2023-04-23T04:12:21.265Z,27.15
2023-04-23T04:13:21.312Z,26.39
2023-04-23T04:14:21.324Z,28.53
2023-04-23T04:15:21.322Z,27.98
2023-04-23T04:16:21.420Z,28.76
2023-04-23T04:17:21.381Z,28.49
2023-04-23T04:18:21.390Z,27.57
2023-04-23T04:19:21.423Z,26.94
2023-04-23T04:20:21.443Z,26.37
2023-04-23T04:21:21.449Z,26.41
2023-04-23T04:22:21.473Z,28.08
2023-04-23T04:23:21.491Z,28.32
2023-04-23T04:24:23.112Z,27.70
2023-04-23T04:25:21.500Z,32.95
2023-04-23T04:26:21.494Z,29.67
2023-04-23T04:27:21.480Z,28.35
2023-04-23T04:28:21.470Z,30.24
2023-04-23T04:29:21.492Z,28.68
2023-04-23T04:30:21.459Z,30.17
2023-04-23T04:31:21.468Z,29.25
2023-04-23T04:32:21.458Z,28.54
2023-04-23T04:33:21.434Z,28.11
2023-04-23T04:34:21.434Z,29.11
2023-04-23T04:35:21.436Z,28.90
2023-04-23T04:36:21.400Z,28.71
2023-04-23T04:37:21.398Z,29.58
2023-04-23T04:38:21.387Z,31.99
2023-04-23T04:39:21.410Z,29.41
2023-04-23T04:40:21.366Z,27.56
2023-04-23T04:41:21.369Z,27.74
2023-04-23T04:42:21.401Z,30.15
2023-04-23T04:43:21.345Z,28.76
2023-04-23T04:44:21.334Z,28.27
2023-04-23T04:45:21.370Z,29.33
2023-04-23T04:46:21.365Z,28.35
2023-04-23T04:47:21.357Z,29.68
2023-04-23T04:48:21.310Z,27.80
2023-04-23T04:49:21.309Z,29.09
2023-04-23T04:50:21.307Z,27.39
2023-04-23T04:51:21.296Z,29.44
2023-04-23T04:52:21.272Z,29.71
2023-04-23T04:53:21.294Z,31.66
2023-04-23T04:54:21.267Z,32.30
2023-04-23T04:55:21.257Z,30.71
2023-04-23T04:56:21.250Z,29.70
2023-04-23T04:57:21.272Z,29.27
2023-04-23T04:58:21.249Z,28.15
2023-04-23T04:59:21.229Z,32.30
2023-04-23T05:00:21.239Z,28.47
2023-04-23T05:01:21.313Z,27.17
2023-04-23T05:02:21.386Z,29.95
2023-04-23T05:03:21.347Z,30.65
2023-04-23T05:04:21.302Z,30.16
2023-04-23T05:05:21.184Z,26.49
2023-04-23T05:06:22.000Z,29.10
2023-04-23T05:07:21.173Z,28.38
2023-04-23T05:08:21.167Z,30.38
2023-04-23T05:09:21.157Z,29.97
2023-04-23T05:10:21.155Z,30.87
2023-04-23T05:11:21.168Z,32.01
2023-04-23T05:12:21.150Z,32.43
2023-04-23T05:13:21.142Z,30.60
2023-04-23T05:14:22.035Z,29.24
2023-04-23T05:15:21.994Z,31.59
2023-04-23T05:16:21.188Z,30.97
2023-04-23T05:17:21.211Z,29.23
2023-04-23T05:18:21.207Z,28.70
2023-04-23T05:19:21.218Z,29.56
2023-04-23T05:20:21.243Z,29.49
2023-04-23T05:21:21.992Z,29.49
2023-04-23T05:22:21.995Z,28.52
2023-04-23T05:23:21.317Z,29.07
2023-04-23T05:24:21.338Z,32.94
2023-04-23T05:25:21.365Z,30.40
2023-04-23T05:26:21.389Z,27.88
2023-04-23T05:27:21.406Z,28.35
2023-04-23T05:28:21.417Z,29.99
2023-04-23T05:29:21.439Z,27.36
2023-04-23T05:30:21.472Z,28.34
2023-04-23T05:31:21.645Z,30.91
2023-04-23T05:32:22.732Z,28.38
2023-04-23T05:33:21.561Z,30.38
2023-04-23T05:34:21.565Z,31.33
2023-04-23T05:35:21.562Z,27.44
2023-04-23T05:36:21.593Z,29.84
2023-04-23T05:37:21.616Z,28.30
2023-04-23T05:38:21.648Z,27.60
2023-04-23T05:39:21.669Z,28.46
2023-04-23T05:40:22.600Z,25.48
2023-04-23T05:41:21.702Z,27.92
2023-04-23T05:42:21.741Z,27.04
2023-04-23T05:43:21.749Z,27.90
2023-04-23T05:44:21.782Z,28.08
2023-04-23T05:45:21.799Z,25.40
2023-04-23T05:46:22.752Z,27.23
2023-04-23T05:47:21.884Z,26.79
2023-04-23T05:48:21.876Z,26.19
2023-04-23T05:49:22.602Z,26.10
2023-04-23T05:50:22.603Z,26.95
2023-04-23T05:51:21.922Z,28.74
2023-04-23T05:52:21.941Z,26.04
2023-04-23T05:53:22.013Z,27.86
2023-04-23T05:54:22.003Z,27.38
2023-04-23T05:55:22.032Z,28.91
2023-04-23T05:56:22.077Z,28.07
2023-04-23T05:57:22.102Z,25.73
2023-04-23T05:58:22.176Z,28.30
2023-04-23T05:59:22.139Z,27.12
2023-04-23T06:00:22.211Z,27.63
2023-04-23T06:01:22.175Z,25.45
2023-04-23T06:02:24.718Z,27.38
2023-04-23T06:03:22.314Z,31.26
2023-04-23T06:04:23.201Z,28.94
2023-04-23T06:05:22.300Z,30.21
2023-04-23T06:06:22.158Z,26.70
2023-04-23T06:07:22.168Z,26.66
2023-04-23T06:08:24.535Z,26.08
2023-04-23T06:09:22.130Z,31.49
2023-04-23T06:10:22.146Z,27.49
2023-04-23T06:11:22.124Z,28.69
2023-04-23T06:12:22.994Z,30.81
2023-04-23T06:13:22.105Z,29.06
2023-04-23T06:14:22.092Z,27.44
2023-04-23T06:15:22.087Z,26.29
2023-04-23T06:16:22.184Z,27.02
2023-04-23T06:17:22.639Z,25.73
2023-04-23T06:18:23.004Z,27.94
2023-04-23T06:19:22.065Z,30.58
2023-04-23T06:20:22.077Z,34.32
2023-04-23T06:21:23.000Z,38.36
2023-04-23T06:22:22.061Z,39.88
2023-04-23T06:23:22.032Z,42.96
2023-04-23T06:24:22.026Z,42.50
2023-04-23T06:25:22.020Z,42.85
2023-04-23T06:26:22.010Z,42.20
2023-04-23T06:27:22.018Z,41.42
2023-04-23T06:28:21.996Z,39.06
2023-04-23T06:29:21.997Z,37.29
2023-04-23T06:30:21.978Z,38.01
2023-04-23T06:31:22.034Z,39.76
2023-04-23T06:32:21.972Z,39.45
2023-04-23T06:33:21.956Z,41.89
2023-04-23T06:34:21.967Z,43.59
2023-04-23T06:35:21.998Z,41.82
2023-04-23T06:36:23.033Z,43.86
2023-04-23T06:37:22.030Z,46.77
2023-04-23T06:38:22.051Z,44.23
2023-04-23T06:39:23.005Z,46.24
2023-04-23T06:40:22.103Z,41.87
2023-04-23T06:41:22.121Z,42.30
2023-04-23T06:42:22.129Z,42.21
2023-04-23T06:43:22.155Z,40.50
2023-04-23T06:44:22.180Z,41.99
2023-04-23T06:45:22.197Z,41.52
2023-04-23T06:46:22.223Z,45.77
2023-04-23T06:47:22.624Z,40.88
2023-04-23T06:48:22.643Z,41.05
2023-04-23T06:49:22.624Z,42.50
2023-04-23T06:50:22.653Z,40.62
2023-04-23T06:51:22.630Z,40.49
2023-04-23T06:52:22.662Z,39.51
2023-04-23T06:53:22.633Z,42.75
2023-04-23T06:54:22.632Z,42.47
2023-04-23T06:55:22.638Z,43.87
2023-04-23T06:56:22.635Z,40.28
2023-04-23T06:57:22.629Z,40.57
2023-04-23T06:58:22.646Z,40.61
2023-04-23T06:59:22.643Z,43.09
2023-04-23T07:00:22.642Z,41.26
2023-04-23T07:01:22.769Z,42.39
2023-04-23T07:02:22.695Z,41.72
2023-04-23T07:03:22.720Z,43.14
2023-04-23T07:04:22.797Z,41.63
2023-04-23T07:05:22.671Z,41.71
2023-04-23T07:06:22.666Z,41.90
2023-04-23T07:07:22.660Z,41.16
2023-04-23T07:08:22.693Z,41.43
2023-04-23T07:09:22.683Z,42.09
2023-04-23T07:10:22.703Z,42.26
2023-04-23T07:11:22.713Z,40.76
2023-04-23T07:12:22.722Z,44.64
2023-04-23T07:13:22.749Z,41.31
2023-04-23T07:14:22.766Z,42.36
2023-04-23T07:15:22.942Z,40.97
2023-04-23T07:16:22.851Z,41.54
2023-04-23T07:17:22.846Z,42.00
2023-04-23T07:18:22.840Z,40.95
2023-04-23T07:19:22.852Z,42.04
2023-04-23T07:20:23.662Z,41.74
2023-04-23T07:21:22.876Z,40.21
2023-04-23T07:22:22.888Z,41.54
2023-04-23T07:23:22.908Z,40.82
2023-04-23T07:24:22.939Z,40.05
2023-04-23T07:25:22.954Z,42.22
2023-04-23T07:26:22.942Z,40.79
2023-04-23T07:27:22.952Z,40.34
2023-04-23T07:28:23.058Z,40.42
2023-04-23T07:29:22.990Z,40.69
2023-04-23T07:30:23.009Z,40.94
2023-04-23T07:31:23.017Z,40.41
2023-04-23T07:32:23.060Z,43.00
2023-04-23T07:33:23.042Z,44.28
2023-04-23T07:34:23.051Z,40.84
2023-04-23T07:35:23.065Z,41.73
2023-04-23T07:36:23.081Z,41.36
2023-04-23T07:37:23.098Z,43.33
2023-04-23T07:38:23.111Z,44.51
2023-04-23T07:39:23.110Z,42.27
2023-04-23T07:40:23.140Z,40.57
2023-04-23T07:41:23.133Z,43.60
2023-04-23T07:42:23.149Z,41.95
2023-04-23T07:43:23.167Z,44.78
2023-04-23T07:44:23.178Z,46.33
2023-04-23T07:45:23.188Z,45.72
2023-04-23T07:46:24.087Z,48.10
2023-04-23T07:47:23.347Z,44.38
2023-04-23T07:48:23.226Z,45.46
2023-04-23T07:49:23.244Z,45.78
2023-04-23T07:50:23.253Z,42.93
2023-04-23T07:51:23.268Z,44.16
2023-04-23T07:52:23.277Z,43.32
2023-04-23T07:53:23.683Z,44.13
2023-04-23T07:54:25.590Z,44.51
2023-04-23T07:55:24.059Z,48.55
2023-04-23T07:56:23.645Z,52.35
2023-04-23T07:57:23.648Z,47.16
2023-04-23T07:58:23.285Z,47.68
2023-04-23T07:59:23.273Z,47.32
2023-04-23T08:00:23.276Z,47.74
2023-04-23T08:01:23.254Z,47.74
2023-04-23T08:02:23.336Z,48.23
2023-04-23T08:03:24.294Z,46.60
2023-04-23T08:04:23.666Z,48.64
2023-04-23T08:05:23.265Z,47.62
2023-04-23T08:06:23.216Z,45.81
2023-04-23T08:07:23.224Z,48.90
2023-04-23T08:08:23.221Z,47.32
2023-04-23T08:09:23.214Z,48.85
2023-04-23T08:10:23.243Z,48.12
2023-04-23T08:11:23.185Z,48.64
2023-04-23T08:12:23.207Z,46.17
2023-04-23T08:13:23.175Z,50.11
2023-04-23T08:14:23.175Z,50.45
2023-04-23T08:15:23.197Z,49.08
2023-04-23T08:16:23.317Z,47.21
2023-04-23T08:17:23.269Z,48.53
2023-04-23T08:18:24.068Z,50.87
2023-04-23T08:19:23.254Z,50.48
2023-04-23T08:20:23.287Z,50.04
2023-04-23T08:21:26.063Z,48.11
2023-04-23T08:22:23.282Z,49.96
2023-04-23T08:23:23.269Z,51.17
2023-04-23T08:24:23.266Z,51.37
2023-04-23T08:25:30.060Z,50.71
2023-04-23T08:26:23.248Z,51.31
2023-04-23T08:27:23.240Z,52.16
2023-04-23T08:28:23.262Z,52.26
2023-04-23T08:29:23.243Z,52.45
2023-04-23T08:30:23.296Z,51.55
2023-04-23T08:31:26.931Z,45.97
2023-04-23T08:33:41.010Z,25.00
2023-04-23T08:34:41.828Z,25.00
2023-04-23T08:35:41.819Z,25.00
2023-04-23T08:36:41.816Z,25.00
2023-04-23T08:37:41.805Z,25.00
2023-04-23T08:38:41.798Z,25.00
2023-04-23T08:39:42.076Z,27.68
2023-04-23T08:40:41.789Z,32.91
2023-04-23T08:41:41.772Z,28.54
2023-04-23T08:42:42.505Z,25.52
2023-04-23T08:43:41.784Z,28.97
2023-04-23T08:44:42.506Z,30.64
2023-04-23T08:45:42.513Z,29.21
2023-04-23T08:46:41.807Z,29.05
2023-04-23T08:47:41.779Z,27.22
2023-04-23T08:48:41.718Z,27.78
2023-04-23T08:49:42.003Z,29.18
2023-04-23T08:50:41.723Z,29.37
2023-04-23T08:51:41.727Z,32.25
2023-04-23T08:52:42.030Z,27.80
2023-04-23T08:53:42.015Z,30.59
2023-04-23T08:54:41.717Z,30.92
2023-04-23T08:55:41.716Z,29.28
2023-04-23T08:56:41.727Z,33.44
2023-04-23T08:57:41.719Z,29.77
2023-04-23T08:58:41.720Z,31.47
2023-04-23T08:59:42.066Z,33.32
2023-04-23T09:00:41.750Z,25.00
2023-04-23T09:01:41.754Z,28.15
2023-04-23T09:02:41.913Z,25.72
2023-04-23T09:03:41.815Z,30.77
2023-04-23T09:04:41.728Z,30.55
2023-04-23T09:05:41.737Z,29.28
2023-04-23T09:06:41.728Z,31.34
2023-04-23T09:07:41.737Z,26.26
2023-04-23T09:08:41.726Z,26.24
2023-04-23T09:09:41.884Z,28.58
2023-04-23T09:10:41.725Z,29.06
2023-04-23T09:11:41.729Z,27.87
2023-04-23T09:12:41.737Z,27.55
2023-04-23T09:13:42.051Z,31.94
2023-04-23T09:14:42.771Z,28.61
2023-04-23T09:15:42.551Z,32.63
2023-04-23T09:16:41.743Z,35.92
2023-04-23T09:17:41.757Z,30.09
2023-04-23T09:18:41.737Z,26.54
2023-04-23T09:19:42.024Z,31.62
2023-04-23T09:20:41.740Z,31.98
2023-04-23T09:21:42.524Z,30.80
2023-04-23T09:22:42.328Z,29.20
2023-04-23T09:23:41.728Z,26.01
2023-04-23T09:24:41.922Z,34.94
2023-04-23T09:25:41.749Z,35.50
2023-04-23T09:26:41.733Z,33.20
2023-04-23T09:27:41.749Z,32.09
2023-04-23T09:28:41.745Z,34.98
2023-04-23T09:29:42.140Z,34.67
2023-04-23T09:30:42.026Z,40.24
2023-04-23T09:31:41.796Z,40.10
2023-04-23T09:32:41.774Z,38.62
2023-04-23T09:33:41.748Z,36.30
2023-04-23T09:34:41.744Z,34.12
2023-04-23T09:35:41.741Z,27.32
2023-04-23T09:36:41.742Z,30.58
2023-04-23T09:37:41.745Z,26.51
2023-04-23T09:38:41.747Z,34.30
2023-04-23T09:39:42.120Z,35.48
2023-04-23T09:40:41.766Z,33.27
2023-04-23T09:41:41.746Z,35.13
2023-04-23T09:42:41.753Z,36.87
2023-04-23T09:43:41.763Z,29.78
2023-04-23T09:44:41.747Z,28.87
2023-04-23T09:45:41.759Z,30.56
2023-04-23T09:46:41.747Z,29.59
2023-04-23T09:47:41.795Z,31.10
2023-04-23T09:48:41.752Z,31.02
2023-04-23T09:49:42.094Z,31.89
2023-04-23T09:50:41.710Z,29.53
2023-04-23T09:51:42.042Z,32.03
2023-04-23T09:52:41.335Z,32.43
2023-04-23T09:53:41.331Z,31.55
2023-04-23T09:54:41.319Z,32.43
2023-04-23T09:55:41.312Z,30.91
2023-04-23T09:56:41.305Z,31.96
2023-04-23T09:57:41.305Z,36.97
2023-04-23T09:58:41.287Z,30.67
2023-04-23T09:59:49.774Z,29.94
2023-04-23T10:00:41.264Z,30.58
2023-04-23T10:01:41.304Z,32.64
2023-04-23T10:02:41.387Z,33.65
2023-04-23T10:03:42.238Z,42.97
2023-04-23T10:04:41.305Z,53.88
2023-04-23T10:05:59.637Z,43.89
2023-04-23T10:06:46.833Z,44.46
2023-04-23T10:07:41.223Z,44.45
2023-04-23T10:08:41.212Z,46.54
2023-04-23T10:09:41.544Z,44.52
2023-04-23T10:10:55.084Z,43.85
2023-04-23T10:11:41.220Z,44.13
2023-04-23T10:13:40.178Z,44.25
2023-04-23T10:14:41.172Z,42.50
2023-04-23T10:15:41.189Z,38.76
2023-04-23T10:17:40.179Z,34.83
2023-04-23T10:18:41.145Z,33.84
2023-04-23T10:19:41.524Z,42.17
2023-04-23T10:20:41.133Z,42.22
2023-04-23T10:21:53.462Z,39.28
2023-04-23T10:22:41.117Z,39.30
2023-04-23T10:23:41.106Z,40.33
2023-04-23T10:24:41.097Z,40.10
2023-04-23T10:25:41.096Z,37.31
2023-04-23T10:26:41.097Z,45.20
2023-04-23T10:27:52.196Z,43.86
2023-04-23T10:28:41.079Z,44.16
2023-04-23T10:29:42.458Z,46.19
2023-04-23T10:30:41.187Z,49.50
2023-04-23T10:31:41.314Z,48.65
2023-04-23T10:32:41.354Z,37.32
2023-04-23T10:33:55.393Z,43.78
2023-04-23T10:34:41.289Z,44.13
2023-04-23T10:35:41.363Z,45.08
2023-04-23T10:36:41.280Z,37.54
2023-04-23T10:37:41.291Z,47.29
2023-04-23T10:38:54.960Z,53.31
2023-04-23T10:39:41.271Z,44.35
2023-04-23T10:40:41.254Z,47.20
2023-04-23T10:41:41.252Z,47.89
2023-04-23T10:42:41.246Z,48.24
2023-04-23T10:43:41.231Z,46.89
2023-04-23T10:45:40.219Z,46.04
2023-04-23T10:46:42.069Z,46.06
2023-04-23T10:47:41.247Z,49.30
2023-04-23T10:48:41.205Z,49.21
2023-04-23T10:49:41.481Z,41.59
2023-04-23T10:51:00.165Z,24.76
2023-04-23T10:52:41.060Z,25.95
2023-04-23T10:53:41.164Z,28.87
2023-04-23T10:54:41.154Z,35.78
2023-04-23T10:55:41.153Z,46.91
2023-04-23T10:56:41.134Z,58.05
2023-04-23T10:57:41.130Z,54.06
2023-04-23T10:58:41.130Z,63.71
2023-04-23T10:59:41.289Z,57.07
2023-04-23T11:00:41.129Z,57.27
2023-04-23T11:01:41.154Z,71.26
2023-04-23T11:02:41.202Z,56.62
2023-04-23T11:03:44.603Z,53.21
2023-04-23T11:04:41.199Z,53.70
2023-04-23T11:05:41.076Z,54.03
2023-04-23T11:06:41.062Z,57.14
2023-04-23T11:07:41.083Z,59.11
2023-04-23T11:08:41.051Z,60.34
2023-04-23T11:09:41.353Z,59.94
2023-04-23T11:10:41.054Z,59.68
2023-04-23T11:11:41.026Z,66.89
2023-04-23T11:12:41.024Z,67.50
2023-04-23T11:13:41.023Z,71.00
2023-04-23T11:14:41.067Z,63.01
2023-04-23T11:15:41.074Z,66.79
2023-04-23T11:16:41.250Z,63.34
2023-04-23T11:17:41.127Z,57.54
2023-04-23T11:18:41.107Z,63.10
2023-04-23T11:19:41.403Z,69.21
2023-04-23T11:20:41.177Z,59.84
2023-04-23T11:21:41.198Z,70.03
2023-04-23T11:22:41.218Z,70.53
2023-04-23T11:23:41.267Z,68.36
2023-04-23T11:24:41.262Z,70.97
2023-04-23T11:25:41.267Z,68.62
2023-04-23T11:26:41.266Z,67.33
2023-04-23T11:27:41.293Z,68.17
2023-04-23T11:28:41.305Z,70.53
2023-04-23T11:29:41.565Z,70.92
2023-04-23T11:30:41.308Z,73.04
2023-04-23T11:31:50.624Z,71.50
2023-04-23T11:32:41.375Z,71.86
2023-04-23T11:33:41.291Z,72.01
2023-04-23T11:34:41.578Z,72.67
2023-04-23T11:35:41.289Z,77.11
2023-04-23T11:36:41.276Z,75.39
2023-04-23T11:37:41.265Z,72.36
2023-04-23T11:38:41.264Z,73.50
2023-04-23T11:39:41.629Z,66.03
2023-04-23T11:40:41.250Z,79.79
2023-04-23T11:41:41.237Z,73.17
2023-04-23T11:42:41.242Z,72.13
2023-04-23T11:43:41.237Z,70.53
2023-04-23T11:44:41.220Z,70.42
2023-04-23T11:45:41.250Z,78.32
2023-04-23T11:46:41.215Z,67.32
2023-04-23T11:47:41.249Z,70.68
2023-04-23T11:48:41.190Z,75.79
2023-04-23T11:49:41.362Z,77.19
2023-04-23T11:50:41.181Z,72.75
2023-04-23T11:51:41.169Z,80.00
2023-04-23T11:52:41.166Z,71.02
2023-04-23T11:53:41.154Z,72.67
2023-04-23T11:54:41.177Z,70.07
2023-04-23T11:55:41.248Z,79.81
2023-04-23T11:56:41.263Z,75.13
2023-04-23T11:57:41.308Z,69.76
2023-04-23T11:58:41.367Z,74.03
2023-04-23T11:59:41.724Z,76.17
2023-04-23T12:00:41.480Z,76.16
2023-04-23T12:01:42.079Z,79.02
2023-04-23T12:02:41.724Z,75.95
2023-04-23T12:03:41.708Z,74.06
2023-04-23T12:04:41.728Z,68.23
2023-04-23T12:05:42.652Z,78.78
2023-04-23T12:06:41.749Z,77.83
2023-04-23T12:07:41.806Z,74.50
2023-04-23T12:08:42.580Z,80.56
2023-04-23T12:09:42.180Z,84.00
2023-04-23T12:10:42.611Z,80.34
2023-04-23T12:11:41.997Z,83.84
2023-04-23T12:12:42.024Z,83.28
2023-04-23T12:13:42.081Z,87.16
2023-04-23T12:14:42.590Z,79.46
2023-04-23T12:15:42.215Z,82.40
2023-04-23T12:16:43.096Z,86.27
2023-04-23T12:17:42.355Z,80.85
2023-04-23T12:18:42.423Z,84.75
2023-04-23T12:19:42.831Z,77.42
2023-04-23T12:20:42.523Z,77.90
2023-04-23T12:21:42.561Z,84.11
2023-04-23T12:22:45.589Z,78.15
2023-04-23T12:23:42.620Z,94.58
2023-04-23T12:24:42.601Z,82.69
2023-04-23T12:25:42.587Z,83.91
2023-04-23T12:26:42.659Z,80.11
2023-04-23T12:27:43.122Z,79.46
2023-04-23T12:28:42.576Z,84.01
2023-04-23T12:29:42.845Z,85.76
2023-04-23T12:30:42.565Z,78.55
2023-04-23T12:31:42.634Z,82.58
2023-04-23T12:32:42.577Z,87.13
2023-04-23T12:33:42.547Z,74.31
2023-04-23T12:34:42.983Z,90.41
2023-04-23T12:35:42.539Z,82.07
2023-04-23T12:36:42.530Z,82.62
2023-04-23T12:37:42.519Z,90.87
2023-04-23T12:38:42.517Z,80.23
2023-04-23T12:39:42.768Z,86.06
2023-04-23T12:40:42.494Z,89.14
2023-04-23T12:41:42.485Z,85.97
2023-04-23T12:42:42.506Z,78.95
2023-04-23T12:43:42.540Z,84.73
2023-04-23T12:44:42.600Z,81.06
2023-04-23T12:45:42.663Z,83.27
2023-04-23T12:46:42.760Z,82.87
2023-04-23T12:47:42.820Z,84.85
2023-04-23T12:48:42.847Z,76.33
2023-04-23T12:49:43.327Z,89.37
2023-04-23T12:50:42.964Z,81.13
2023-04-23T12:51:43.025Z,85.54
2023-04-23T12:52:43.088Z,89.80
2023-04-23T12:53:43.159Z,86.95
2023-04-23T12:54:43.227Z,93.42
2023-04-23T12:55:43.266Z,85.70
2023-04-23T12:56:43.325Z,86.78
2023-04-23T12:57:43.370Z,84.16